createdAt,value
2023-01-31T00:01:40.488Z,5.00
2023-01-31T00:04:11.456Z,5.05
2023-01-31T00:06:42.254Z,4.79
2023-01-31T00:09:11.781Z,5.01
2023-01-31T00:11:39.523Z,5.04
2023-01-31T00:14:08.306Z,5.28
2023-01-31T00:16:37.158Z,5.16
2023-01-31T00:19:04.802Z,5.24
2023-01-31T00:21:32.892Z,5.02
2023-01-31T00:24:01.167Z,5.09
2023-01-31T00:26:33.926Z,5.17
2023-01-31T00:29:04.088Z,5.51
2023-01-31T00:31:33.834Z,5.29
2023-01-31T00:34:02.352Z,5.72
2023-01-31T00:36:34.842Z,5.84
2023-01-31T00:39:04.836Z,5.49
2023-01-31T00:41:35.868Z,5.23
2023-01-31T00:44:05.812Z,5.48
2023-01-31T00:46:33.620Z,5.64
2023-01-31T00:49:02.267Z,6.08
2023-01-31T00:51:30.049Z,5.99
2023-01-31T00:53:57.510Z,5.59
2023-01-31T00:56:25.867Z,5.40
2023-01-31T00:58:53.814Z,5.68
2023-01-31T01:01:26.820Z,5.58
2023-01-31T01:03:56.649Z,5.58
2023-01-31T01:06:24.461Z,5.95
2023-01-31T01:08:52.418Z,5.92
2023-01-31T01:11:22.809Z,5.88
2023-01-31T01:13:51.109Z,5.68
2023-01-31T01:16:24.216Z,5.67
2023-01-31T01:18:55.026Z,5.70
2023-01-31T01:21:27.662Z,5.49
2023-01-31T01:24:00.801Z,5.73
2023-01-31T01:26:31.116Z,5.79
2023-01-31T01:29:00.709Z,5.57
2023-01-31T01:31:32.851Z,5.74
2023-01-31T01:34:21.037Z,5.66
2023-01-31T01:36:48.542Z,5.72
2023-01-31T01:39:16.751Z,5.64
2023-01-31T01:41:44.544Z,5.71
2023-01-31T01:44:49.466Z,5.65
2023-01-31T01:47:18.014Z,5.70
2023-01-31T01:49:48.127Z,5.99
2023-01-31T01:52:16.357Z,5.72
2023-01-31T01:54:53.105Z,5.69
2023-01-31T01:57:24.708Z,5.98
2023-01-31T02:00:04.921Z,6.04
2023-01-31T02:02:43.783Z,5.50
2023-01-31T02:05:14.861Z,5.55
2023-01-31T02:07:42.942Z,5.58
2023-01-31T02:10:17.982Z,5.38
2023-01-31T02:12:46.378Z,5.40
2023-01-31T02:15:14.295Z,5.70
2023-01-31T02:17:41.970Z,6.15
2023-01-31T02:20:28.957Z,5.54
2023-01-31T02:23:19.052Z,5.76
2023-01-31T02:25:49.813Z,5.61
2023-01-31T02:28:54.907Z,5.51
2023-01-31T02:31:42.820Z,5.65
2023-01-31T02:34:30.290Z,5.79
2023-01-31T02:37:17.244Z,5.88
2023-01-31T02:39:51.242Z,6.18
2023-01-31T02:42:28.709Z,6.08
2023-01-31T02:45:06.635Z,5.67
2023-01-31T02:47:57.116Z,5.94
2023-01-31T02:50:29.460Z,6.14
2023-01-31T02:53:16.572Z,6.55
2023-01-31T02:56:11.283Z,6.31
2023-01-31T02:58:40.288Z,6.26
2023-01-31T03:01:11.290Z,6.10
2023-01-31T03:03:39.432Z,6.33
2023-01-31T03:06:10.988Z,6.48
2023-01-31T03:08:41.448Z,6.26
2023-01-31T03:11:09.980Z,6.30
2023-01-31T03:14:05.592Z,6.14
2023-01-31T03:17:01.648Z,6.34
2023-01-31T03:19:36.344Z,6.13
2023-01-31T03:22:16.324Z,5.94
2023-01-31T03:24:47.451Z,5.71
2023-01-31T03:27:15.660Z,5.93
2023-01-31T03:29:44.032Z,6.02
2023-01-31T03:32:20.835Z,6.35
2023-01-31T03:34:48.999Z,6.13
2023-01-31T03:37:22.465Z,6.03
2023-01-31T03:40:05.930Z,5.84
2023-01-31T03:42:44.688Z,5.51
2023-01-31T03:45:17.156Z,5.97
2023-01-31T03:47:47.293Z,5.99
2023-01-31T03:50:25.951Z,6.12
2023-01-31T03:53:17.136Z,6.26
2023-01-31T03:55:58.910Z,6.16
2023-01-31T03:58:29.210Z,5.96
2023-01-31T04:00:59.683Z,5.84
2023-01-31T04:03:30.787Z,6.07
2023-01-31T04:05:59.175Z,5.97
2023-01-31T04:08:27.060Z,6.07
2023-01-31T04:10:55.369Z,6.14
2023-01-31T04:13:22.775Z,5.79
2023-01-31T04:15:50.665Z,5.86
2023-01-31T04:18:18.206Z,5.71
2023-01-31T04:20:45.694Z,5.47
2023-01-31T04:23:13.564Z,5.81
2023-01-31T04:25:41.059Z,5.58
2023-01-31T04:28:08.502Z,5.77
2023-01-31T04:30:36.617Z,5.83
2023-01-31T04:33:04.265Z,5.89
2023-01-31T04:35:32.043Z,5.90
2023-01-31T04:38:00.076Z,5.88
2023-01-31T04:40:27.737Z,5.47
2023-01-31T04:42:55.401Z,5.74
2023-01-31T04:45:23.241Z,6.05
2023-01-31T04:47:51.133Z,5.48
2023-01-31T04:50:18.589Z,5.57
2023-01-31T04:52:49.854Z,5.82
2023-01-31T04:55:18.082Z,5.84
2023-01-31T04:57:46.293Z,5.17
2023-01-31T05:00:14.390Z,5.37
2023-01-31T05:02:41.884Z,4.92
2023-01-31T05:05:09.854Z,5.33
2023-01-31T05:07:38.692Z,5.37
2023-01-31T05:10:07.625Z,5.34
2023-01-31T05:12:36.291Z,5.63
2023-01-31T05:15:05.093Z,5.57
2023-01-31T05:17:32.657Z,5.00
2023-01-31T05:20:00.543Z,4.74
2023-01-31T05:22:28.031Z,5.24
2023-01-31T05:24:57.552Z,5.40
2023-01-31T05:27:26.939Z,5.43
2023-01-31T05:29:54.893Z,5.67
2023-01-31T05:32:23.672Z,5.12
2023-01-31T05:34:51.434Z,5.60
2023-01-31T05:37:19.480Z,5.01
2023-01-31T05:39:46.957Z,5.11
2023-01-31T05:42:14.751Z,4.97
2023-01-31T05:44:42.242Z,5.39
2023-01-31T05:47:09.936Z,5.27
2023-01-31T05:49:37.872Z,5.47
2023-01-31T05:52:05.513Z,5.68
2023-01-31T05:54:33.514Z,5.67
2023-01-31T05:57:01.499Z,5.59
2023-01-31T05:59:31.373Z,5.55
2023-01-31T06:01:59.730Z,5.42
2023-01-31T06:04:27.586Z,5.66
2023-01-31T06:06:55.049Z,5.58
2023-01-31T06:09:22.674Z,5.63
2023-01-31T06:11:50.631Z,5.03
2023-01-31T06:14:18.196Z,5.34
2023-01-31T06:16:45.858Z,5.74
2023-01-31T06:19:13.655Z,5.34
2023-01-31T06:21:42.300Z,5.56
2023-01-31T06:24:09.991Z,5.56
2023-01-31T06:26:37.720Z,5.60
2023-01-31T06:29:05.586Z,5.22
2023-01-31T06:31:33.281Z,5.05
2023-01-31T06:34:01.460Z,5.49
2023-01-31T06:36:31.622Z,5.30
2023-01-31T06:38:59.373Z,5.56
2023-01-31T06:41:27.619Z,5.10
2023-01-31T06:43:58.057Z,5.57
2023-01-31T06:46:25.495Z,5.53
2023-01-31T06:48:53.347Z,5.36
2023-01-31T06:51:20.932Z,5.58
2023-01-31T06:53:48.793Z,5.69
2023-01-31T06:56:17.104Z,5.77
2023-01-31T06:58:44.576Z,5.63
2023-01-31T07:01:14.199Z,5.68
2023-01-31T07:03:42.276Z,6.00
2023-01-31T07:06:10.977Z,5.73
2023-01-31T07:08:38.481Z,5.88
2023-01-31T07:11:06.415Z,5.96
2023-01-31T07:13:35.008Z,5.72
2023-01-31T07:16:02.565Z,5.88
2023-01-31T07:18:31.397Z,5.72
2023-01-31T07:21:01.696Z,5.57
2023-01-31T07:23:32.487Z,5.51
2023-01-31T07:26:05.317Z,5.75
2023-01-31T07:28:33.006Z,5.99
2023-01-31T07:31:11.866Z,5.97
2023-01-31T07:33:39.906Z,6.16
2023-01-31T07:36:16.316Z,6.22
2023-01-31T07:38:53.739Z,6.37
2023-01-31T07:41:29.148Z,6.12
2023-01-31T07:44:33.233Z,5.82
2023-01-31T07:47:43.622Z,6.06
2023-01-31T07:58:12.664Z,6.59
2023-01-31T08:01:27.476Z,6.61
2023-01-31T08:07:43.382Z,6.10
2023-01-31T08:14:41.481Z,6.47
2023-01-31T08:17:18.743Z,6.76
2023-01-31T08:20:11.323Z,6.86
2023-01-31T08:22:42.575Z,7.36
2023-01-31T08:25:14.581Z,7.02
2023-01-31T08:27:44.217Z,7.25
2023-01-31T08:30:16.665Z,7.09
2023-01-31T08:32:46.133Z,7.41
2023-01-31T08:35:15.579Z,7.20
2023-01-31T08:37:43.683Z,6.77
2023-01-31T08:40:13.629Z,6.91
2023-01-31T08:42:42.648Z,6.90
2023-01-31T08:45:14.707Z,7.24
2023-01-31T08:47:43.041Z,7.03
2023-01-31T08:50:27.230Z,7.29
2023-01-31T08:53:08.580Z,7.71
2023-01-31T08:55:37.093Z,8.00
2023-01-31T08:58:08.691Z,7.85
2023-01-31T09:00:37.911Z,7.90
2023-01-31T09:03:09.724Z,7.67
2023-01-31T09:05:39.046Z,7.17
2023-01-31T09:08:08.008Z,7.46
2023-01-31T09:10:37.159Z,7.18
2023-01-31T09:13:11.505Z,7.46
2023-01-31T09:15:40.737Z,7.40
2023-01-31T09:18:10.008Z,7.60
2023-01-31T09:20:39.502Z,7.67
2023-01-31T09:23:09.568Z,7.54
2023-01-31T09:25:47.024Z,7.45
2023-01-31T09:28:15.827Z,7.46
2023-01-31T09:30:47.725Z,7.38
2023-01-31T09:33:18.006Z,7.55
2023-01-31T09:36:03.506Z,7.55
2023-01-31T09:38:38.190Z,7.37
2023-01-31T09:41:39.702Z,7.17
2023-01-31T09:44:13.333Z,7.34
2023-01-31T09:46:46.111Z,7.22
2023-01-31T09:49:18.900Z,7.16
2023-01-31T09:51:52.907Z,7.77
2023-01-31T09:54:29.472Z,7.87
2023-01-31T09:57:41.858Z,7.92
2023-01-31T10:00:41.688Z,7.87
2023-01-31T10:03:25.853Z,8.02
2023-01-31T10:06:06.302Z,7.86
2023-01-31T10:08:59.659Z,7.84
2023-01-31T10:11:41.845Z,7.58
2023-01-31T10:14:29.262Z,7.55
2023-01-31T10:17:15.792Z,7.33
2023-01-31T10:19:57.515Z,7.17
2023-01-31T10:22:40.468Z,7.36
2023-01-31T10:25:22.139Z,7.50
2023-01-31T10:28:12.081Z,7.35
2023-01-31T10:30:48.975Z,7.70
2023-01-31T10:33:34.955Z,7.53
2023-01-31T10:36:18.644Z,7.74
2023-01-31T10:39:19.505Z,7.64
2023-01-31T10:42:14.616Z,7.90
2023-01-31T10:45:02.815Z,7.90
2023-01-31T10:47:38.041Z,8.04
2023-01-31T10:50:24.701Z,7.81
2023-01-31T10:53:43.992Z,7.98
2023-01-31T10:56:37.862Z,8.08
2023-01-31T10:59:37.506Z,8.06
2023-01-31T11:02:19.979Z,7.82
2023-01-31T11:04:52.083Z,8.21
2023-01-31T11:07:23.539Z,8.62
2023-01-31T11:09:55.005Z,8.26
2023-01-31T11:12:41.202Z,8.61
2023-01-31T11:15:18.630Z,8.83
2023-01-31T11:17:48.215Z,8.92
2023-01-31T11:20:46.611Z,9.13
2023-01-31T11:23:27.432Z,9.10
2023-01-31T11:25:58.517Z,8.29
2023-01-31T11:28:40.021Z,8.26
2023-01-31T11:31:20.406Z,8.21
2023-01-31T11:33:59.847Z,7.89
2023-01-31T11:36:42.495Z,8.24
2023-01-31T11:39:26.453Z,8.28
2023-01-31T11:41:55.351Z,8.36
2023-01-31T11:44:30.665Z,8.47
2023-01-31T11:47:08.083Z,8.46
2023-01-31T11:49:40.153Z,8.68
2023-01-31T11:52:15.670Z,8.67
2023-01-31T11:54:53.514Z,8.37
2023-01-31T11:57:48.701Z,8.66
2023-01-31T12:00:25.941Z,8.66
2023-01-31T12:03:09.330Z,8.91
2023-01-31T12:05:42.039Z,8.66
2023-01-31T12:08:36.506Z,8.74
2023-01-31T12:11:37.659Z,8.81
2023-01-31T12:14:16.787Z,8.68
2023-01-31T12:16:55.851Z,8.93
2023-01-31T12:19:31.174Z,9.00
2023-01-31T12:22:04.818Z,8.71
2023-01-31T12:25:01.771Z,9.17
2023-01-31T12:28:01.663Z,9.00
2023-01-31T12:30:53.804Z,8.80
2023-01-31T12:33:44.743Z,8.50
2023-01-31T12:36:40.285Z,8.60
2023-01-31T12:39:37.325Z,8.59
2023-01-31T12:42:43.539Z,8.48
2023-01-31T12:45:30.720Z,8.40
2023-01-31T12:48:23.185Z,8.28
2023-01-31T12:51:29.036Z,7.92
2023-01-31T12:54:31.096Z,8.04
2023-01-31T12:57:20.511Z,8.53
2023-01-31T13:00:17.425Z,8.43
2023-01-31T13:03:08.534Z,8.03
2023-01-31T13:05:48.478Z,7.64
2023-01-31T13:08:26.481Z,8.03
2023-01-31T13:11:12.587Z,7.88
2023-01-31T13:13:50.201Z,8.37
2023-01-31T13:16:31.334Z,8.51
2023-01-31T13:19:40.012Z,8.52
2023-01-31T13:22:20.430Z,8.53
2023-01-31T13:25:17.443Z,8.18
2023-01-31T13:27:57.645Z,8.11
2023-01-31T13:30:38.103Z,8.35
2023-01-31T13:33:25.393Z,8.21
2023-01-31T13:36:18.529Z,7.94
2023-01-31T13:38:53.470Z,7.50
2023-01-31T13:41:39.459Z,7.96
2023-01-31T13:44:13.648Z,8.16
2023-01-31T13:46:59.520Z,8.38
2023-01-31T13:49:48.019Z,7.88
2023-01-31T13:52:29.702Z,8.09
2023-01-31T13:55:01.360Z,8.11
2023-01-31T14:03:02.658Z,7.98
2023-01-31T14:08:54.408Z,7.85
2023-01-31T14:11:33.515Z,7.56
2023-01-31T14:14:11.813Z,7.51
2023-01-31T14:16:46.215Z,7.40
2023-01-31T14:19:24.128Z,7.36
2023-01-31T14:22:05.643Z,7.56
2023-01-31T14:24:47.397Z,7.80
2023-01-31T14:27:30.106Z,7.86
2023-01-31T14:30:37.685Z,7.60
2023-01-31T14:33:09.577Z,7.60
2023-01-31T14:36:06.400Z,7.57
2023-01-31T14:39:02.540Z,7.84
2023-01-31T14:41:50.878Z,7.38
2023-01-31T14:44:50.517Z,7.65
2023-01-31T14:47:26.340Z,7.40
2023-01-31T14:50:15.939Z,7.13
2023-01-31T14:53:15.433Z,7.41
2023-01-31T14:55:49.168Z,7.59
2023-01-31T14:58:25.841Z,7.61
2023-01-31T15:01:02.271Z,7.81
2023-01-31T15:03:56.756Z,7.77
2023-01-31T15:06:30.829Z,7.59
2023-01-31T15:09:25.400Z,7.60
2023-01-31T15:12:08.009Z,7.24
2023-01-31T15:17:37.641Z,7.33
2023-01-31T15:23:13.442Z,6.79
2023-01-31T15:25:49.953Z,7.03
2023-01-31T15:28:31.651Z,6.79
2023-01-31T15:31:11.559Z,6.97
2023-01-31T15:33:54.602Z,7.38
2023-01-31T15:36:36.437Z,7.02
2023-01-31T15:39:30.442Z,7.48
2023-01-31T15:42:26.842Z,6.98
2023-01-31T15:45:17.628Z,6.79
2023-01-31T15:47:56.465Z,6.91
2023-01-31T15:50:29.787Z,7.22
2023-01-31T15:53:21.405Z,7.00
2023-01-31T15:56:05.455Z,7.27
2023-01-31T15:58:46.748Z,7.56
2023-01-31T16:01:23.827Z,7.72
2023-01-31T16:03:57.608Z,7.56
2023-01-31T16:06:41.586Z,7.47
2023-01-31T16:09:26.475Z,7.83
2023-01-31T16:11:58.720Z,7.77
2023-01-31T16:14:33.877Z,7.64
2023-01-31T16:17:09.181Z,7.87
2023-01-31T16:19:39.492Z,7.82
2023-01-31T16:22:31.107Z,7.86
2023-01-31T16:25:21.116Z,7.61
2023-01-31T16:30:36.655Z,7.86
2023-01-31T16:33:32.267Z,7.89
2023-01-31T16:36:23.432Z,7.96
2023-01-31T16:39:11.663Z,7.88
2023-01-31T16:41:51.941Z,7.92
2023-01-31T16:44:38.583Z,7.92
2023-01-31T16:47:07.440Z,7.84
2023-01-31T16:49:37.692Z,7.88
2023-01-31T16:52:18.859Z,7.90
2023-01-31T17:00:24.734Z,7.93
2023-01-31T17:05:47.500Z,7.83
2023-01-31T17:08:21.655Z,7.52
2023-01-31T17:10:56.447Z,7.84
2023-01-31T17:16:08.491Z,7.87
2023-01-31T17:18:41.604Z,8.00
2023-01-31T17:23:48.803Z,7.85
2023-01-31T17:26:30.720Z,7.70
2023-01-31T17:31:54.610Z,7.96
2023-01-31T17:34:26.631Z,7.89
2023-01-31T17:37:03.570Z,7.87
2023-01-31T17:42:18.126Z,7.78
2023-01-31T17:44:51.443Z,7.92
2023-01-31T17:47:31.413Z,7.64
2023-01-31T17:50:00.988Z,7.87
2023-01-31T17:55:24.029Z,7.89
2023-01-31T17:57:54.497Z,7.68
2023-01-31T18:03:16.051Z,7.95
2023-01-31T18:11:15.470Z,7.86
2023-01-31T18:13:53.633Z,8.08
2023-01-31T18:22:08.658Z,7.82
2023-01-31T18:24:45.420Z,7.78
2023-01-31T18:27:20.458Z,7.75
2023-01-31T18:30:08.341Z,7.96
2023-01-31T18:35:13.809Z,7.94
2023-01-31T18:37:54.467Z,7.87
2023-01-31T18:40:38.567Z,8.02
2023-01-31T18:43:13.764Z,8.09
2023-01-31T18:48:25.519Z,7.81
2023-01-31T18:50:55.568Z,8.09
2023-01-31T18:53:33.219Z,8.16
2023-01-31T18:56:09.804Z,8.01
2023-01-31T18:58:54.585Z,8.07
2023-01-31T19:01:24.295Z,7.94
2023-01-31T19:09:25.390Z,7.65
2023-01-31T19:14:42.051Z,7.79
2023-01-31T19:17:15.776Z,8.07
2023-01-31T19:19:53.497Z,7.93
2023-01-31T19:22:28.618Z,7.81
2023-01-31T19:27:41.521Z,7.61
2023-01-31T19:30:17.280Z,7.75
2023-01-31T19:32:53.700Z,7.65
2023-01-31T19:35:30.890Z,6.41
2023-01-31T19:38:05.810Z,6.78
2023-01-31T19:40:35.781Z,6.88
2023-01-31T19:43:04.858Z,7.10
2023-01-31T19:45:46.326Z,6.54
2023-01-31T19:48:19.852Z,6.41
2023-01-31T19:50:50.725Z,6.41
2023-01-31T19:53:28.405Z,6.61
2023-01-31T19:56:00.799Z,6.22
2023-01-31T20:01:26.463Z,6.48
2023-01-31T20:04:03.253Z,6.18
2023-01-31T20:06:35.709Z,6.39
2023-01-31T20:09:08.260Z,6.43
2023-01-31T20:11:42.635Z,6.39
2023-01-31T20:17:00.623Z,6.46
2023-01-31T20:19:37.682Z,6.37
2023-01-31T20:22:11.648Z,6.08
2023-01-31T20:24:49.138Z,6.25
2023-01-31T20:27:36.547Z,6.00
2023-01-31T20:30:20.502Z,6.23
2023-01-31T20:35:37.321Z,5.82
2023-01-31T20:38:22.582Z,6.02
2023-01-31T20:43:28.510Z,5.47
2023-01-31T20:46:11.389Z,6.04
2023-01-31T20:48:58.332Z,5.56
2023-01-31T20:51:31.860Z,5.46
2023-01-31T20:54:07.603Z,5.61
2023-01-31T20:56:42.006Z,5.83
2023-01-31T20:59:14.013Z,5.63
2023-01-31T21:01:47.173Z,5.57
2023-01-31T21:04:19.184Z,5.55
2023-01-31T21:06:50.373Z,5.44
2023-01-31T21:09:23.359Z,5.69
2023-01-31T21:11:57.565Z,5.81
2023-01-31T21:14:31.659Z,5.64
2023-01-31T21:17:08.751Z,5.83
2023-01-31T21:19:43.026Z,5.88
2023-01-31T21:22:14.423Z,5.75
2023-01-31T21:24:43.400Z,5.67
2023-01-31T21:27:19.700Z,5.83
2023-01-31T21:30:11.593Z,5.92
2023-01-31T21:32:41.508Z,5.94
2023-01-31T21:35:10.366Z,6.07
2023-01-31T21:37:40.492Z,5.92
2023-01-31T21:40:13.623Z,6.09
2023-01-31T21:42:44.359Z,6.00
2023-01-31T21:45:15.952Z,6.28
2023-01-31T21:50:55.640Z,5.88
2023-01-31T21:53:23.187Z,6.31
2023-01-31T21:55:50.670Z,6.09
2023-01-31T21:58:20.928Z,6.35
2023-01-31T22:00:55.388Z,6.09
2023-01-31T22:03:28.502Z,6.01
2023-01-31T22:06:03.384Z,6.05
2023-01-31T22:08:35.706Z,6.13
2023-01-31T22:11:07.004Z,5.73
2023-01-31T22:13:37.214Z,5.96
2023-01-31T22:16:11.304Z,5.71
2023-01-31T22:18:45.969Z,5.30
2023-01-31T22:21:19.437Z,5.46
2023-01-31T22:23:53.766Z,5.55
2023-01-31T22:26:27.500Z,5.75
2023-01-31T22:29:02.528Z,5.46
2023-01-31T22:31:33.741Z,5.62
2023-01-31T22:34:04.690Z,5.67
2023-01-31T22:36:33.528Z,5.77
2023-01-31T22:39:06.045Z,6.01
2023-01-31T22:41:35.592Z,5.79
2023-01-31T22:44:04.924Z,5.51
2023-01-31T22:46:34.082Z,5.89
2023-01-31T22:49:02.221Z,5.73
2023-01-31T22:51:30.501Z,6.23
2023-01-31T22:53:59.500Z,6.05
2023-01-31T22:56:31.324Z,6.19
2023-01-31T22:59:06.845Z,6.06
2023-01-31T23:01:45.588Z,6.06
2023-01-31T23:04:19.480Z,6.00
2023-01-31T23:06:48.751Z,6.18
2023-01-31T23:09:17.019Z,6.35
2023-01-31T23:11:45.548Z,6.16
2023-01-31T23:14:14.739Z,6.20
2023-01-31T23:17:01.711Z,6.36
2023-01-31T23:19:33.478Z,6.55
2023-01-31T23:22:05.350Z,6.10
2023-01-31T23:24:35.158Z,6.12
2023-01-31T23:27:03.036Z,6.44
2023-01-31T23:29:33.453Z,6.47
2023-01-31T23:32:07.829Z,6.56
2023-01-31T23:34:36.396Z,6.61
2023-01-31T23:37:04.308Z,6.66
2023-01-31T23:39:31.841Z,6.72
2023-01-31T23:41:59.359Z,6.80
2023-01-31T23:44:27.317Z,6.74
2023-01-31T23:47:02.788Z,6.84
2023-01-31T23:49:31.521Z,6.96
2023-01-31T23:52:05.800Z,6.97
2023-01-31T23:54:34.512Z,6.90
2023-01-31T23:57:03.704Z,6.61
2023-01-31T23:59:33.127Z,6.78
